Time;durP1;ratioP1;P1;durP2;ratioP2;P2;SDS_P1;SDS_P2;PMS_P1;PMS_P2;Temp;Humidity;BMP_temperature;BMP_pressure;BME280_temperature;BME280_humidity;BME280_pressure;Samples;Min_cycle;Max_cycle;Signal;HPM_P1;HPM_P2
2022/12/01 00:02:14;;;;;;;12.32;6.60;;;10.70;99.90;;;;;;5111283;28;20423;-50
2022/12/01 00:04:40;;;;;;;11.10;6.53;;;11.20;99.90;;;;;;5111112;28;20027;-46
2022/12/01 00:07:06;;;;;;;9.43;6.25;;;12.70;99.90;;;;;;5111060;28;20090;-47
2022/12/01 00:12:16;;;;;;;9.07;6.65;;;14.20;99.90;;;;;;5111406;28;20435;-47
2022/12/01 00:14:41;;;;;;;10.50;6.70;;;13.70;99.90;;;;;;5109780;28;20024;-49
2022/12/01 00:17:07;;;;;;;11.15;6.78;;;13.10;99.90;;;;;;5111578;28;20027;-47
2022/12/01 00:19:32;;;;;;;10.20;6.63;;;12.50;99.90;;;;;;5114424;28;20028;-45
2022/12/01 00:21:58;;;;;;;9.98;7.18;;;12.00;99.90;;;;;;5114892;28;20571;-47
2022/12/01 00:24:24;;;;;;;10.07;6.90;;;11.60;99.90;;;;;;5114803;28;20399;-47
2022/12/01 00:26:49;;;;;;;11.07;7.55;;;11.30;99.90;;;;;;5114737;28;20055;-51
2022/12/01 00:29:15;;;;;;;10.82;7.57;;;11.00;99.90;;;;;;5114258;28;20019;-47
2022/12/01 00:31:41;;;;;;;12.02;7.32;;;10.90;99.90;;;;;;5114786;28;20101;-47
2022/12/01 00:34:20;;;;;;;9.88;6.90;;;11.00;99.90;;;;;;5115348;28;20051;-47
2022/12/01 00:36:46;;;;;;;11.20;7.80;;;12.40;99.90;;;;;;5114817;28;20440;-50
2022/12/01 00:39:12;;;;;;;10.25;6.60;;;13.90;99.90;;;;;;5114125;28;21691;-47
2022/12/01 00:41:37;;;;;;;9.70;6.85;;;14.10;99.90;;;;;;5114618;28;20070;-45
2022/12/01 00:44:03;;;;;;;12.25;7.88;;;13.70;99.90;;;;;;5114533;28;20024;-48
2022/12/01 00:46:29;;;;;;;10.68;7.10;;;13.20;99.90;;;;;;5114438;28;20058;-48
2022/12/01 00:48:54;;;;;;;12.90;7.80;;;12.60;99.90;;;;;;5113779;28;20027;-50
2022/12/01 00:51:20;;;;;;;11.52;7.88;;;12.10;99.90;;;;;;5114506;28;20023;-47
2022/12/01 00:53:46;;;;;;;12.38;8.10;;;11.70;99.90;;;;;;5114445;28;20570;-47
2022/12/01 00:56:12;;;;;;;11.43;7.38;;;11.40;99.90;;;;;;5114197;28;20023;-47
2022/12/01 00:58:37;;;;;;;11.25;7.60;;;11.10;99.90;;;;;;5113739;28;20064;-47
2022/12/01 01:01:03;;;;;;;11.75;7.30;;;10.90;99.90;;;;;;5114251;28;20105;-50
2022/12/01 01:03:30;;;;;;;12.52;7.95;;;10.80;99.90;;;;;;5114054;28;20393;-45
2022/12/01 01:06:09;;;;;;;10.23;7.20;;;11.90;99.90;;;;;;5114169;28;20035;-48
2022/12/01 01:08:35;;;;;;;11.63;7.65;;;13.60;99.90;;;;;;5113580;28;20030;-45
2022/12/01 01:11:02;;;;;;;11.20;7.85;;;14.20;99.90;;;;;;5114140;28;20046;-46
2022/12/01 01:13:28;;;;;;;11.15;7.15;;;13.90;99.90;;;;;;5114070;28;20501;-46
2022/12/01 01:16:06;;;;;;;11.25;7.63;;;13.40;99.90;;;;;;5113748;28;20407;-47
2022/12/01 01:18:33;;;;;;;10.25;7.18;;;12.70;99.90;;;;;;5113415;28;20133;-48
2022/12/01 01:21:02;;;;;;;13.35;8.55;;;12.30;99.90;;;;;;5114026;28;20115;-48
2022/12/01 01:23:28;;;;;;;11.70;8.10;;;11.80;99.90;;;;;;5113812;28;20028;-48
2022/12/01 01:26:00;;;;;;;13.38;8.32;;;11.50;99.90;;;;;;5113552;28;20023;-50
2022/12/01 01:28:26;;;;;;;13.07;8.63;;;11.20;99.90;;;;;;5112972;28;20032;-50
2022/12/01 01:30:51;;;;;;;13.63;8.80;;;11.00;99.90;;;;;;5113618;28;20476;-48
2022/12/01 01:33:17;;;;;;;13.50;9.13;;;10.80;99.90;;;;;;5113582;27;20024;-47
2022/12/01 01:35:43;;;;;;;11.80;7.78;;;10.60;99.90;;;;;;5113476;28;20040;-47
2022/12/01 01:38:08;;;;;;;12.75;8.18;;;10.50;99.90;;;;;;5112936;28;20027;-49
2022/12/01 01:40:40;;;;;;;13.27;8.85;;;11.40;99.90;;;;;;5113569;28;20439;-50
2022/12/01 01:43:16;;;;;;;13.40;7.95;;;13.20;99.90;;;;;;5113313;28;20015;-48
2022/12/01 01:45:42;;;;;;;12.88;8.55;;;14.30;99.90;;;;;;5113173;27;20032;-48
2022/12/01 01:48:12;;;;;;;10.85;8.00;;;14.20;99.80;;;;;;5112826;28;20126;-48
2022/12/01 01:50:38;;;;;;;10.38;7.68;;;13.60;99.90;;;;;;5113253;28;20044;-48
2022/12/01 01:53:08;;;;;;;12.20;8.27;;;13.10;99.90;;;;;;5113249;28;20455;-50
2022/12/01 01:55:35;;;;;;;12.05;8.05;;;12.50;99.90;;;;;;5112955;28;20038;-49
2022/12/01 01:58:05;;;;;;;12.88;8.82;;;12.00;99.90;;;;;;5112680;27;20024;-49
2022/12/01 02:00:31;;;;;;;11.93;8.38;;;11.60;99.90;;;;;;5113456;28;20026;-50
2022/12/01 02:02:56;;;;;;;14.27;8.82;;;11.30;99.90;;;;;;5113030;28;20031;-50
2022/12/01 02:05:28;;;;;;;12.25;8.77;;;11.00;99.90;;;;;;5112975;28;20038;-48
2022/12/01 02:07:56;;;;;;;11.52;7.88;;;10.80;99.90;;;;;;5112508;28;20434;-50
2022/12/01 02:10:46;;;;;;;14.35;8.73;;;10.70;99.90;;;;;;5112810;28;20232;-48
2022/12/01 02:13:39;;;;;;;15.93;9.00;;;10.60;99.90;;;;;;5112906;28;20103;-52
2022/12/01 02:16:32;;;;;;;14.07;8.80;;;11.70;99.90;;;;;;5112778;27;20028;-49
2022/12/01 02:19:20;;;;;;;12.32;7.93;;;13.70;99.90;;;;;;5112178;28;20046;-50
2022/12/01 02:22:26;;;;;;;11.88;8.10;;;14.30;99.90;;;;;;5112630;28;20027;-50
2022/12/01 02:25:04;;;;;;;11.88;8.57;;;13.80;99.80;;;;;;5112494;28;20056;-49
2022/12/01 02:28:27;;;;;;;13.85;8.73;;;13.20;99.90;;;;;;5112473;28;20027;-50
2022/12/01 02:30:55;;;;;;;12.48;8.52;;;12.40;99.90;;;;;;5069389;28;20130;-50
2022/12/01 02:34:01;;;;;;;16.17;9.20;;;11.90;99.90;;;;;;5069393;28;20031;-47
2022/12/01 02:36:35;;;;;;;13.52;8.98;;;11.50;99.90;;;;;;5084019;28;20039;-48
2022/12/01 02:39:20;;;;;;;12.68;8.57;;;11.20;99.90;;;;;;5111530;28;20038;-48
2022/12/01 02:41:50;;;;;;;;;;;10.90;99.90;;;;;;5112515;28;20031;-51
2022/12/01 02:44:27;;;;;;;13.20;9.43;;;10.70;99.90;;;;;;5112170;28;19908;-50
2022/12/01 02:47:09;;;;;;;11.38;8.65;;;10.60;99.90;;;;;;5112189;28;20102;-47
2022/12/01 02:49:44;;;;;;;13.27;9.00;;;10.50;99.90;;;;;;5111618;28;20019;-50
2022/12/01 02:52:12;;;;;;;13.73;9.68;;;10.40;99.90;;;;;;5112191;28;20030;-49
2022/12/01 02:54:38;;;;;;;13.15;8.57;;;10.30;99.90;;;;;;5111977;28;20106;-51
2022/12/01 02:57:04;;;;;;;14.57;9.45;;;10.20;99.90;;;;;;5111916;28;20031;-48
2022/12/01 02:59:29;;;;;;;13.43;9.57;;;10.20;99.90;;;;;;5111463;28;20419;-48
2022/12/01 03:02:26;;;;;;;13.38;8.90;;;10.10;99.90;;;;;;5111860;28;20039;-48
2022/12/01 03:05:05;;;;;;;14.07;9.05;;;10.60;99.90;;;;;;5111846;28;20024;-48
2022/12/01 03:07:42;;;;;;;12.95;8.07;;;12.50;99.90;;;;;;5111746;28;20028;-51
2022/12/01 03:10:11;;;;;;;13.82;9.10;;;14.20;99.90;;;;;;5111275;28;20027;-50
2022/12/01 03:12:49;;;;;;;12.30;8.57;;;14.50;99.30;;;;;;5111928;28;20148;-50
2022/12/01 03:15:17;;;;;;;12.35;8.38;;;14.10;99.50;;;;;;5111737;28;20052;-50
2022/12/01 03:17:57;;;;;;;13.65;8.95;;;13.40;99.90;;;;;;5111477;28;20362;-49
2022/12/01 03:20:32;;;;;;;13.48;9.40;;;12.70;99.90;;;;;;5112055;28;20097;-50
2022/12/01 03:23:26;;;;;;;13.20;8.60;;;12.20;99.90;;;;;;5111648;27;20020;-49
2022/12/01 03:25:55;;;;;;;13.50;8.80;;;11.70;99.90;;;;;;5110092;28;20115;-50
2022/12/01 03:28:28;;;;;;;12.95;8.75;;;11.30;99.90;;;;;;5111036;28;20027;-48
2022/12/01 03:30:58;;;;;;;13.27;9.13;;;11.10;99.90;;;;;;5111496;28;20020;-50
2022/12/01 03:33:29;;;;;;;13.13;8.82;;;10.90;99.90;;;;;;5111661;28;20016;-49
2022/12/01 03:36:10;;;;;;;13.25;8.80;;;11.80;99.90;;;;;;5111704;28;20019;-50
2022/12/01 03:38:36;;;;;;;12.18;8.30;;;13.50;99.90;;;;;;5110845;28;20028;-48
2022/12/01 03:41:20;;;;;;;11.93;8.98;;;14.00;99.90;;;;;;5111356;28;20040;-50
2022/12/01 03:44:01;;;;;;;11.85;8.43;;;13.70;99.80;;;;;;5111488;28;20035;-50
2022/12/01 03:46:51;;;;;;;14.38;9.20;;;13.20;99.90;;;;;;5111226;28;20037;-50
2022/12/01 03:49:18;;;;;;;11.30;8.35;;;12.50;99.90;;;;;;5110913;28;20032;-49
2022/12/01 03:52:09;;;;;;;13.80;9.90;;;12.10;99.90;;;;;;5111117;28;20098;-48
2022/12/01 03:55:12;;;;;;;13.23;9.02;;;11.60;99.90;;;;;;5115625;28;20024;-50
2022/12/01 03:57:52;;;;;;;13.85;9.52;;;11.20;99.90;;;;;;5115290;28;20054;-49
2022/12/01 04:00:18;;;;;;;12.52;8.75;;;10.90;99.90;;;;;;5115199;28;20030;-47
2022/12/01 04:02:44;;;;;;;14.38;9.10;;;10.70;99.90;;;;;;5115426;28;20020;-49
2022/12/01 04:05:11;;;;;;;12.43;8.55;;;11.30;99.90;;;;;;5115346;28;20466;-47
2022/12/01 04:07:38;;;;;;;12.82;8.73;;;12.90;99.90;;;;;;5115196;27;20024;-49
2022/12/01 04:10:05;;;;;;;12.63;8.88;;;14.00;99.90;;;;;;5114931;28;20015;-48
2022/12/01 04:12:33;;;;;;;12.27;8.60;;;14.10;99.50;;;;;;5115166;28;20016;-48
2022/12/01 04:15:06;;;;;;;11.18;8.18;;;13.50;99.80;;;;;;5115422;28;20032;-49
2022/12/01 04:17:33;;;;;;;12.38;8.55;;;13.00;99.90;;;;;;5113690;28;20473;-50
2022/12/01 04:19:59;;;;;;;13.25;8.77;;;12.40;99.90;;;;;;5114739;28;20032;-49
2022/12/01 04:22:25;;;;;;;13.52;8.23;;;11.90;99.90;;;;;;5114975;28;20465;-50
2022/12/01 04:24:51;;;;;;;13.65;8.63;;;11.60;99.90;;;;;;5114911;28;20107;-48
2022/12/01 04:27:17;;;;;;;12.43;9.15;;;11.30;99.90;;;;;;5114709;28;20099;-51
2022/12/01 04:29:43;;;;;;;12.20;8.60;;;11.00;99.90;;;;;;5114388;28;20023;-48
2022/12/01 04:32:08;;;;;;;12.43;8.60;;;10.80;99.90;;;;;;5115147;28;20047;-49
2022/12/01 04:34:34;;;;;;;11.82;8.70;;;11.20;99.90;;;;;;5113600;28;20019;-48
2022/12/01 04:37:00;;;;;;;14.32;8.90;;;12.70;99.90;;;;;;5114775;27;20035;-49
2022/12/01 04:39:25;;;;;;;11.75;8.10;;;14.00;99.90;;;;;;5114088;28;20028;-50
2022/12/01 04:41:51;;;;;;;12.15;8.65;;;14.10;99.30;;;;;;5113187;28;20030;-49
2022/12/01 04:44:17;;;;;;;11.55;8.07;;;13.70;99.40;;;;;;5114650;28;20072;-48
2022/12/01 04:46:42;;;;;;;11.82;7.72;;;13.10;99.90;;;;;;5114469;28;20019;-48
2022/12/01 04:49:08;;;;;;;12.43;8.43;;;12.50;99.90;;;;;;5114249;28;20034;-51
2022/12/01 04:51:33;;;;;;;11.60;8.57;;;12.00;99.90;;;;;;5114624;28;20108;-50
2022/12/01 04:54:01;;;;;;;14.55;9.50;;;11.60;99.90;;;;;;5114591;28;20030;-48
2022/12/01 04:56:27;;;;;;;12.25;8.75;;;11.20;99.90;;;;;;5114284;28;20115;-50
2022/12/01 04:58:52;;;;;;;12.77;8.80;;;11.00;99.90;;;;;;5113780;28;20106;-49
2022/12/01 05:01:18;;;;;;;13.20;8.82;;;10.70;99.90;;;;;;5114721;28;20495;-50
2022/12/01 05:03:48;;;;;;;12.82;9.05;;;10.80;99.90;;;;;;5113992;28;20409;-45
2022/12/01 05:06:19;;;;;;;13.40;9.20;;;12.00;99.90;;;;;;5113982;28;20023;-46
2022/12/01 05:08:45;;;;;;;12.07;8.52;;;13.80;99.90;;;;;;5112313;28;20027;-47
2022/12/01 05:11:12;;;;;;;11.35;8.02;;;14.20;99.20;;;;;;5114018;28;20492;-47
2022/12/01 05:13:43;;;;;;;12.63;8.00;;;13.80;99.10;;;;;;5114042;28;20020;-47
2022/12/01 05:16:15;;;;;;;11.82;8.20;;;13.30;99.70;;;;;;5113854;28;20031;-51
2022/12/01 05:18:41;;;;;;;13.10;8.65;;;12.70;99.90;;;;;;5113420;28;20016;-47
2022/12/01 05:21:08;;;;;;;13.18;8.57;;;12.10;99.90;;;;;;5113830;28;20024;-47
2022/12/01 05:23:36;;;;;;;12.20;8.75;;;11.70;99.90;;;;;;5113664;28;20076;-47
2022/12/01 05:26:05;;;;;;;10.43;8.15;;;11.30;99.90;;;;;;5113604;28;20063;-48
2022/12/01 05:28:30;;;;;;;11.32;8.65;;;11.10;99.90;;;;;;5113185;28;20106;-49
2022/12/01 05:30:56;;;;;;;14.80;9.05;;;10.80;99.90;;;;;;5113703;28;20099;-47
2022/12/01 05:33:23;;;;;;;12.50;8.45;;;10.70;99.90;;;;;;5113569;28;20032;-49
2022/12/01 05:35:50;;;;;;;11.40;8.32;;;11.70;99.90;;;;;;5113387;28;20412;-45
2022/12/01 05:38:16;;;;;;;10.80;8.60;;;13.40;99.90;;;;;;5113108;28;20473;-45
2022/12/01 05:40:42;;;;;;;11.18;8.07;;;14.00;99.40;;;;;;5113395;28;20035;-47
2022/12/01 05:43:08;;;;;;;11.10;8.15;;;13.80;99.10;;;;;;5113495;28;20084;-47
2022/12/01 05:45:34;;;;;;;12.55;8.70;;;13.30;99.60;;;;;;5113172;28;20110;-47
2022/12/01 05:48:01;;;;;;;13.35;8.93;;;12.80;99.90;;;;;;5112898;28;20044;-46
2022/12/01 05:50:28;;;;;;;11.48;8.27;;;12.30;99.90;;;;;;5113059;28;20060;-50
2022/12/01 05:52:54;;;;;;;13.35;9.40;;;11.80;99.90;;;;;;5113296;28;20066;-47
2022/12/01 05:55:20;;;;;;;12.35;9.15;;;11.40;99.90;;;;;;5113214;28;20066;-47
2022/12/01 05:57:46;;;;;;;11.95;8.57;;;11.10;99.90;;;;;;5112865;28;20486;-48
2022/12/01 06:00:13;;;;;;;12.38;8.63;;;10.90;99.90;;;;;;5112747;28;20024;-45
2022/12/01 06:02:40;;;;;;;12.52;8.50;;;10.70;99.90;;;;;;5111889;28;20487;-47
2022/12/01 06:05:07;;;;;;;12.43;8.73;;;11.30;99.90;;;;;;5112876;28;20031;-47
2022/12/01 06:07:34;;;;;;;11.25;7.97;;;12.90;99.90;;;;;;5112904;28;20115;-48
2022/12/01 06:10:00;;;;;;;13.32;8.07;;;14.00;99.80;;;;;;5112515;28;20065;-48
2022/12/01 06:12:26;;;;;;;12.80;8.57;;;14.00;98.90;;;;;;5112919;28;20389;-46
2022/12/01 06:14:52;;;;;;;10.95;8.32;;;13.50;99.50;;;;;;5111849;28;20031;-49
2022/12/01 06:17:17;;;;;;;12.27;9.27;;;13.00;99.90;;;;;;5112672;28;20061;-47
2022/12/01 06:19:43;;;;;;;12.48;8.77;;;12.50;99.90;;;;;;5112110;28;20452;-48
2022/12/01 06:22:09;;;;;;;11.55;8.35;;;12.00;99.90;;;;;;5112700;27;20540;-47
2022/12/01 06:24:35;;;;;;;12.43;8.60;;;11.60;99.90;;;;;;5112535;28;20030;-49
2022/12/01 06:27:01;;;;;;;12.52;9.00;;;11.20;99.90;;;;;;5112860;28;20016;-47
2022/12/01 06:29:27;;;;;;;13.05;9.50;;;11.00;99.90;;;;;;5112021;28;20086;-48
2022/12/01 06:31:52;;;;;;;13.55;8.95;;;10.80;99.90;;;;;;5111183;28;20027;-46
2022/12/01 06:34:18;;;;;;;12.82;8.55;;;11.00;99.90;;;;;;5112352;28;20686;-47
2022/12/01 06:36:43;;;;;;;13.15;8.55;;;12.40;99.90;;;;;;5112283;28;20027;-47
2022/12/01 06:39:09;;;;;;;12.43;9.07;;;13.90;99.90;;;;;;5111733;28;20084;-47
2022/12/01 06:41:38;;;;;;;10.70;7.90;;;14.10;98.90;;;;;;5112283;28;20092;-48
2022/12/01 06:44:03;;;;;;;12.77;8.25;;;13.80;98.90;;;;;;5112241;28;20067;-47
2022/12/01 06:46:29;;;;;;;10.68;8.57;;;13.20;99.40;;;;;;5112095;28;20047;-49
2022/12/01 06:48:55;;;;;;;13.15;8.57;;;12.70;99.90;;;;;;5111457;28;20477;-48
2022/12/01 06:51:21;;;;;;;12.68;9.20;;;12.10;99.90;;;;;;5112170;28;20080;-47
2022/12/01 06:53:47;;;;;;;12.85;8.68;;;11.70;99.90;;;;;;5110833;28;20656;-47
2022/12/01 06:56:12;;;;;;;12.55;8.93;;;11.30;99.90;;;;;;5111965;28;20023;-47
2022/12/01 06:58:38;;;;;;;12.23;9.15;;;11.10;99.90;;;;;;5111431;28;20392;-47
2022/12/01 07:01:08;;;;;;;12.90;9.38;;;10.90;99.90;;;;;;5111923;28;20028;-50
2022/12/01 07:03:34;;;;;;;11.20;8.02;;;10.60;99.90;;;;;;5111726;28;20031;-48
2022/12/01 07:06:01;;;;;;;14.32;9.77;;;10.50;99.90;;;;;;5110387;28;20023;-48
2022/12/01 07:08:28;;;;;;;14.18;9.75;;;10.40;99.90;;;;;;5111354;28;20024;-46
2022/12/01 07:10:58;;;;;;;13.85;9.50;;;10.30;99.90;;;;;;5111859;28;20031;-47
2022/12/01 07:13:24;;;;;;;12.85;9.05;;;10.20;99.90;;;;;;5111781;28;20035;-47
2022/12/01 07:15:49;;;;;;;13.60;9.15;;;10.10;99.90;;;;;;5111654;28;20027;-47
2022/12/01 07:18:15;;;;;;;12.63;9.50;;;10.10;99.90;;;;;;5111020;28;20028;-47
2022/12/01 07:20:40;;;;;;;15.88;9.70;;;10.10;99.90;;;;;;5111525;28;20473;-47
2022/12/01 07:23:06;;;;;;;14.40;9.40;;;10.00;99.90;;;;;;5111687;28;20051;-47
2022/12/01 07:25:32;;;;;;;12.73;8.63;;;10.00;99.90;;;;;;5111557;28;20023;-47
2022/12/01 07:27:57;;;;;;;13.52;9.45;;;10.00;99.90;;;;;;5110791;28;20564;-47
2022/12/01 07:30:23;;;;;;;13.10;9.52;;;10.00;99.90;;;;;;5111414;28;20027;-47
2022/12/01 07:32:48;;;;;;;14.38;9.88;;;10.00;99.90;;;;;;5111372;28;20023;-47
2022/12/01 07:35:14;;;;;;;13.40;9.43;;;9.90;99.90;;;;;;5111519;27;20044;-47
2022/12/01 07:37:40;;;;;;;13.38;9.32;;;9.90;99.90;;;;;;5111289;28;20019;-47
2022/12/01 07:40:06;;;;;;;14.93;9.68;;;10.00;99.90;;;;;;5110889;28;20417;-45
2022/12/01 07:42:31;;;;;;;14.82;10.05;;;9.90;99.90;;;;;;5111482;28;20477;-47
2022/12/01 07:44:57;;;;;;;11.18;8.40;;;9.90;99.90;;;;;;5110235;28;20532;-46
2022/12/01 07:47:23;;;;;;;13.02;9.20;;;9.90;99.90;;;;;;5111223;28;20216;-48
2022/12/01 07:49:48;;;;;;;13.80;9.30;;;9.90;99.90;;;;;;5110834;28;20028;-47
2022/12/01 07:52:14;;;;;;;13.27;9.30;;;9.90;99.90;;;;;;5111332;28;20024;-47
2022/12/01 07:54:40;;;;;;;13.45;9.45;;;9.90;99.90;;;;;;5111414;28;20466;-49
2022/12/01 07:57:06;;;;;;;14.38;9.68;;;9.90;99.90;;;;;;5111230;28;20019;-47
2022/12/01 07:59:32;;;;;;;16.48;9.93;;;9.90;99.90;;;;;;5110715;28;20035;-47
2022/12/01 08:01:57;;;;;;;14.70;9.88;;;9.90;99.90;;;;;;5111098;28;20039;-47
2022/12/01 08:04:23;;;;;;;14.55;9.73;;;9.80;99.90;;;;;;5111225;28;20356;-47
2022/12/01 08:06:49;;;;;;;14.45;9.50;;;9.90;99.90;;;;;;5111040;28;20073;-48
2022/12/01 08:09:14;;;;;;;14.35;9.95;;;9.90;99.90;;;;;;5110684;28;20024;-49
2022/12/01 08:11:40;;;;;;;14.60;10.10;;;9.90;99.90;;;;;;5111240;28;20020;-47
2022/12/01 08:14:05;;;;;;;14.05;9.57;;;9.80;99.90;;;;;;5111130;28;20027;-47
2022/12/01 08:16:31;;;;;;;12.88;9.02;;;9.80;99.90;;;;;;5110847;28;20477;-47
2022/12/01 08:18:57;;;;;;;14.90;9.70;;;9.80;99.90;;;;;;5110892;28;20392;-46
2022/12/01 08:21:23;;;;;;;14.35;9.45;;;9.80;99.90;;;;;;5111052;28;20058;-47
2022/12/01 08:23:54;;;;;;;12.90;8.75;;;9.80;99.90;;;;;;5111067;28;20350;-45
2022/12/01 08:26:20;;;;;;;13.48;9.68;;;9.80;99.90;;;;;;5110872;28;20024;-45
2022/12/01 08:28:46;;;;;;;12.88;9.43;;;9.80;99.90;;;;;;5110920;28;20102;-47
2022/12/01 08:31:17;;;;;;;13.52;9.65;;;9.80;99.90;;;;;;5109607;28;20156;-49
2022/12/01 08:33:43;;;;;;;13.15;8.98;;;9.80;99.90;;;;;;5111016;28;20016;-45
2022/12/01 08:36:09;;;;;;;13.75;9.60;;;9.80;99.90;;;;;;5110876;28;20046;-45
2022/12/01 08:38:34;;;;;;;14.63;9.80;;;9.80;99.90;;;;;;5111652;28;20028;-47
2022/12/01 08:41:05;;;;;;;13.98;9.68;;;9.80;99.90;;;;;;5114609;28;20035;-47
2022/12/01 08:43:31;;;;;;;13.25;10.00;;;9.80;99.90;;;;;;5113333;28;20031;-47
2022/12/01 08:45:59;;;;;;;15.18;10.48;;;9.80;99.90;;;;;;5114393;28;20034;-45
2022/12/01 08:48:24;;;;;;;14.45;9.88;;;9.80;99.90;;;;;;5114060;28;20065;-47
2022/12/01 08:50:50;;;;;;;13.98;9.25;;;9.80;99.90;;;;;;5114547;28;20020;-49
2022/12/01 08:53:16;;;;;;;13.75;9.18;;;9.80;99.90;;;;;;5114576;28;20503;-47
2022/12/01 08:55:41;;;;;;;13.30;9.18;;;9.80;99.90;;;;;;5114482;28;20027;-47
2022/12/01 08:58:07;;;;;;;16.77;10.30;;;9.80;99.90;;;;;;5113786;28;20059;-47
2022/12/01 09:00:32;;;;;;;14.55;9.57;;;9.80;99.90;;;;;;5114363;28;20045;-51
2022/12/01 09:02:59;;;;;;;15.07;9.70;;;9.80;99.90;;;;;;5114480;28;20034;-47
2022/12/01 09:05:25;;;;;;;13.75;9.82;;;9.80;99.90;;;;;;5114159;28;20024;-49
2022/12/01 09:08:30;;;;;;;13.52;9.70;;;9.80;99.90;;;;;;5113847;28;20065;-45
2022/12/01 09:10:36;;;;;;;15.63;9.70;;;9.80;99.90;;;;;;5113932;28;20080;-47
2022/12/01 09:13:01;;;;;;;14.20;9.73;;;9.80;99.90;;;;;;5114148;28;20496;-46
2022/12/01 09:15:27;;;;;;;13.93;9.93;;;9.80;99.90;;;;;;5114378;28;20388;-50
2022/12/01 09:17:52;;;;;;;13.52;9.60;;;9.80;99.90;;;;;;5113697;28;20392;-47
2022/12/01 09:20:18;;;;;;;14.95;9.18;;;9.80;99.90;;;;;;5113774;28;20027;-46
2022/12/01 09:22:44;;;;;;;13.18;9.27;;;9.70;99.90;;;;;;5113957;28;20031;-47
2022/12/01 09:25:13;;;;;;;13.02;9.30;;;9.80;99.90;;;;;;5113700;28;20534;-49
2022/12/01 09:27:39;;;;;;;13.13;9.75;;;9.70;99.90;;;;;;5113655;28;20016;-47
2022/12/01 09:30:05;;;;;;;14.77;9.75;;;9.80;99.90;;;;;;5113337;28;20026;-47
2022/12/01 09:32:31;;;;;;;12.45;9.10;;;9.70;99.90;;;;;;5113645;28;20024;-47
2022/12/01 09:34:56;;;;;;;14.77;9.55;;;9.70;99.90;;;;;;5112893;28;20024;-49
2022/12/01 09:37:22;;;;;;;13.63;9.43;;;9.70;99.90;;;;;;5113867;28;20108;-49
2022/12/01 09:39:47;;;;;;;14.05;9.60;;;9.70;99.90;;;;;;5113214;28;20043;-48
2022/12/01 09:42:17;;;;;;;13.95;9.70;;;9.70;99.90;;;;;;5113885;28;20024;-51
2022/12/01 09:44:51;;;;;;;13.13;9.02;;;9.70;99.90;;;;;;5113607;28;20032;-49
2022/12/01 09:47:37;;;;;;;13.02;9.48;;;9.70;99.90;;;;;;5113550;28;20031;-49
2022/12/01 09:50:10;;;;;;;14.02;9.05;;;9.70;99.90;;;;;;5113049;28;20504;-48
2022/12/01 09:52:52;;;;;;;12.65;9.18;;;9.80;99.90;;;;;;5113700;28;20020;-50
2022/12/01 09:55:20;;;;;;;12.43;8.85;;;9.70;99.90;;;;;;5113501;28;20039;-51
2022/12/01 09:57:48;;;;;;;13.32;9.52;;;9.70;99.90;;;;;;5113313;27;20024;-48
2022/12/01 10:00:18;;;;;;;13.48;9.57;;;9.70;99.90;;;;;;5113276;27;20027;-50
2022/12/01 10:03:05;;;;;;;13.07;8.80;;;9.70;99.90;;;;;;5113157;28;20024;-50
2022/12/01 10:05:54;;;;;;;12.60;9.25;;;9.70;99.90;;;;;;5113240;28;20084;-48
2022/12/01 10:08:27;;;;;;;14.75;9.73;;;9.70;99.90;;;;;;5106880;28;20122;-49
2022/12/01 10:10:59;;;;;;;14.00;9.25;;;9.70;99.90;;;;;;5113066;28;20073;-48
2022/12/01 10:13:27;;;;;;;13.07;9.30;;;9.70;99.90;;;;;;5113267;28;20016;-48
2022/12/01 10:15:53;;;;;;;13.00;9.30;;;9.70;99.90;;;;;;5113025;28;20469;-50
2022/12/01 10:18:38;;;;;;;12.20;8.70;;;9.70;99.90;;;;;;5112532;28;20027;-50
2022/12/01 10:21:31;;;;;;;14.10;9.20;;;9.70;99.90;;;;;;5113093;28;20031;-50
2022/12/01 10:24:24;;;;;;;14.55;9.55;;;9.70;99.90;;;;;;5112947;28;20034;-48
2022/12/01 10:27:14;;;;;;;13.68;9.25;;;9.70;99.90;;;;;;5112800;28;20032;-49
2022/12/01 10:29:48;;;;;;;12.18;8.90;;;9.70;99.90;;;;;;5112117;28;20050;-48
2022/12/01 10:32:34;;;;;;;13.35;8.98;;;9.70;99.90;;;;;;5112866;28;20027;-48
2022/12/01 10:34:59;;;;;;;13.32;9.07;;;9.70;99.90;;;;;;5112607;28;20027;-48
2022/12/01 10:37:28;;;;;;;13.85;9.27;;;9.70;99.90;;;;;;5112493;27;20039;-51
2022/12/01 10:39:55;;;;;;;12.73;9.23;;;9.70;99.90;;;;;;5112244;28;20535;-50
2022/12/01 10:42:27;;;;;;;13.27;9.20;;;9.70;99.90;;;;;;5111054;28;20114;-49
2022/12/01 10:44:55;;;;;;;12.43;9.02;;;9.70;99.90;;;;;;5112469;28;20027;-48
2022/12/01 10:47:24;;;;;;;12.35;8.68;;;9.70;99.90;;;;;;5112327;28;20459;-48
2022/12/01 10:49:51;;;;;;;13.00;8.95;;;9.70;99.90;;;;;;5112047;28;20180;-48
2022/12/01 10:52:37;;;;;;;13.05;9.05;;;9.70;99.90;;;;;;5112310;28;20019;-50
2022/12/01 10:55:31;;;;;;;12.20;8.40;;;9.70;99.90;;;;;;5112348;28;20240;-49
2022/12/01 10:58:02;;;;;;;14.25;9.52;;;9.70;99.90;;;;;;5109483;28;20032;-49
2022/12/01 11:00:39;;;;;;;12.25;8.82;;;9.70;99.90;;;;;;5112055;28;20031;-48
2022/12/01 11:03:05;;;;;;;13.82;9.25;;;9.70;99.90;;;;;;5111910;28;20026;-48
2022/12/01 11:05:37;;;;;;;15.55;8.85;;;9.70;99.90;;;;;;5112054;28;20106;-49
2022/12/01 11:08:04;;;;;;;11.57;8.70;;;9.70;99.90;;;;;;5111882;28;20020;-48
2022/12/01 11:10:32;;;;;;;13.95;9.10;;;9.70;99.90;;;;;;5112042;28;20465;-48
2022/12/01 11:13:34;;;;;;;13.70;9.20;;;9.70;99.90;;;;;;5112076;28;20106;-48
2022/12/01 11:16:02;;;;;;;13.18;8.52;;;9.70;99.90;;;;;;5088519;28;20040;-49
2022/12/01 11:18:36;;;;;;;11.95;8.43;;;9.70;99.90;;;;;;5111439;28;20039;-48
2022/12/01 11:21:24;;;;;;;11.75;8.27;;;9.70;99.90;;;;;;5112015;28;20058;-50
2022/12/01 11:23:51;;;;;;;13.77;9.38;;;9.70;99.90;;;;;;5111846;28;20030;-52
2022/12/01 11:26:23;;;;;;;11.50;8.27;;;9.70;99.90;;;;;;5111652;28;20231;-48
2022/12/01 11:29:34;;;;;;;13.63;8.80;;;9.70;99.90;;;;;;5111343;28;20019;-49
2022/12/01 11:32:02;;;;;;;11.35;8.43;;;9.70;99.90;;;;;;5111779;28;20434;-51
2022/12/01 11:34:33;;;;;;;14.15;9.88;;;9.70;99.90;;;;;;5111701;28;20503;-49
2022/12/01 11:37:02;;;;;;;11.75;8.73;;;9.70;99.90;;;;;;5111877;28;20039;-51
2022/12/01 11:39:39;;;;;;;14.05;8.80;;;9.70;99.90;;;;;;5111311;28;20118;-50
2022/12/01 11:42:13;;;;;;;14.55;8.85;;;9.70;99.90;;;;;;5111643;28;20392;-48
2022/12/01 11:44:46;;;;;;;12.30;8.98;;;9.70;99.90;;;;;;5111547;28;20024;-50
2022/12/01 11:47:18;;;;;;;12.57;8.43;;;9.70;99.90;;;;;;5111687;28;20032;-51
2022/12/01 11:49:50;;;;;;;11.77;8.95;;;9.70;99.90;;;;;;5111270;28;20047;-51
2022/12/01 11:52:35;;;;;;;12.05;8.57;;;9.70;99.90;;;;;;5111773;28;20031;-48
2022/12/01 11:55:10;;;;;;;13.05;9.23;;;9.70;99.90;;;;;;5111695;28;20028;-49
2022/12/01 11:57:38;;;;;;;11.57;8.38;;;9.70;99.90;;;;;;5111447;28;20034;-50
2022/12/01 12:00:18;;;;;;;14.25;9.43;;;9.70;99.90;;;;;;5111134;28;20069;-51
2022/12/01 12:03:03;;;;;;;13.52;9.25;;;9.70;99.90;;;;;;5111576;28;20051;-49
2022/12/01 12:05:55;;;;;;;13.07;9.13;;;9.70;99.90;;;;;;5111627;28;20076;-50
2022/12/01 12:08:39;;;;;;;12.55;8.73;;;9.70;99.90;;;;;;5111161;28;20381;-48
2022/12/01 12:11:18;;;;;;;11.97;8.40;;;9.70;99.90;;;;;;5111558;28;20016;-49
2022/12/01 12:14:19;;;;;;;12.60;8.90;;;9.70;99.90;;;;;;5111824;28;20303;-49
2022/12/01 12:16:50;;;;;;;11.80;7.88;;;9.70;99.90;;;;;;5072092;28;20035;-49
2022/12/01 12:19:28;;;;;;;11.90;8.65;;;9.70;99.90;;;;;;5107444;28;20089;-51
2022/12/01 12:22:04;;;;;;;12.18;8.85;;;9.70;99.90;;;;;;5115245;28;20317;-49
2022/12/01 12:24:50;;;;;;;12.45;8.63;;;9.70;99.90;;;;;;5115227;28;20047;-51
2022/12/01 12:27:27;;;;;;;11.23;8.48;;;9.70;99.90;;;;;;5093343;28;20427;-48
2022/12/01 12:30:00;;;;;;;13.10;9.25;;;9.70;99.90;;;;;;5114927;28;20020;-48
2022/12/01 12:32:55;;;;;;;11.82;8.43;;;9.70;99.90;;;;;;5115171;28;20024;-49
2022/12/01 12:35:23;;;;;;;12.30;8.65;;;9.70;99.90;;;;;;5115239;28;20054;-51
2022/12/01 12:38:08;;;;;;;11.68;8.52;;;9.70;99.90;;;;;;5114810;28;20027;-50
2022/12/01 12:40:33;;;;;;;12.23;9.13;;;9.70;99.90;;;;;;5115068;28;20089;-51
2022/12/01 12:43:05;;;;;;;13.13;8.73;;;9.70;99.90;;;;;;5115424;28;20028;-51
2022/12/01 12:45:52;;;;;;;13.15;9.00;;;9.70;99.90;;;;;;5114781;28;20106;-49
2022/12/01 12:48:36;;;;;;;13.48;9.05;;;9.70;99.90;;;;;;5114264;28;20070;-49
2022/12/01 12:51:07;;;;;;;13.35;8.95;;;9.70;99.90;;;;;;5115300;28;20027;-48
2022/12/01 12:53:58;;;;;;;12.38;8.85;;;9.70;99.90;;;;;;5114782;28;20020;-51
2022/12/01 12:56:25;;;;;;;13.55;8.73;;;9.70;99.90;;;;;;5114606;28;20019;-50
2022/12/01 12:59:15;;;;;;;12.30;8.40;;;9.70;99.90;;;;;;5114145;28;20469;-51
2022/12/01 13:01:53;;;;;;;13.13;9.32;;;9.70;99.90;;;;;;5114593;27;20122;-49
2022/12/01 13:04:30;;;;;;;11.63;8.38;;;9.70;99.90;;;;;;5114722;28;20020;-50